• Join FlightAware (Why Join?)
  • Login
  • US Flag 
09:39AM EDT


 

Airport Tracker/Info


-or-


 

Live Flight TrackerFlight Track Log ✈ ASQ5958 ✈ 06-Apr-2013 ✈ KDEN - KDSM

Flight Track Log - Related Links

Times and Time Zones

All times are in EDT time to prevent confusion due to time zone crossing. See the ASQ5958 flight status page for this flight to view local times or setup timezone preferences in your user account.

Time Position Orientation Groundspeed Altitude Reporting Facility
EDT Latitude Longitude Course Direction KTS MPH feet Rate Location/Type
05:52PM 39.8833 -104.6167 90° East 181 208 6,200  Level Denver TRACON
05:53PM 39.8833 -104.5333 90° East 229 264 8,200 1,800 Climbing Denver TRACON
05:54PM 39.9167 -104.4333 66° East 284 327 9,800 1,380 Climbing Denver TRACON
05:55PM 39.9333 -104.3333 78° East 327 376 11,000 1,560 Climbing Denver TRACON
05:56PM 39.9614 -104.2003 75° East 334 384 13,200 1,680 Climbing Denver Center
05:57PM 39.9825 -104.0625 79° East 362 417 14,800 1,560 Climbing Denver Center
05:58PM 39.9958 -103.9256 83° East 379 436 16,400 1,560 Climbing Denver Center
05:59PM 40.0192 -103.7822 78° East 399 459 18,000 1,500 Climbing Denver Center
06:00PM 40.0408 -103.6447 78° East 394 453 19,500 1,500 Climbing Denver Center
06:01PM 40.0664 -103.4944 77° East 416 479 21,100 1,560 Climbing Denver Center
06:02PM 40.0911 -103.3417 78° East 426 490 22,700 1,500 Climbing Denver Center
06:03PM 40.1203 -103.1606 78° East 432 497 24,200 1,260 Climbing Denver Center
06:04PM 40.1453 -103.0011 78° East 442 509 25,300 1,080 Climbing Denver Center
06:05PM 40.1697 -102.8381 79° East 452 520 26,500 1,140 Climbing Denver Center
06:06PM 40.1947 -102.6778 78° East 450 518 27,700 1,080 Climbing Denver Center
06:07PM 40.2192 -102.5247 78° East 450 518 28,800 1,140 Climbing Denver Center
06:08PM 40.2447 -102.3475 79° East 444 511 30,100 1,140 Climbing Denver Center
06:09PM 40.2694 -102.1953 78° East 448 516 31,200 1,140 Climbing Denver Center
06:10PM 40.2953 -102.0161 79° East 450 518 32,500 1,140 Climbing Denver Center
06:11PM 40.3183 -101.8625 79° East 451 519 33,600 960 Climbing Denver Center
06:12PM 40.3442 -101.6833 79° East 450 518 34,700 540 Climbing Denver Center
06:14PM 40.3792 -101.4489 79° East 459 528 35,000 120 Climbing Denver Center
06:15PM 40.4022 -101.2842 80° East 479 551 35,000  Level Denver Center
06:16PM 40.4261 -101.1183 79° East 485 558 35,000  Level Denver Center
06:17PM 40.4528 -100.9258 80° East 483 556 35,000  Level Denver Center
06:18PM 40.4744 -100.7628 80° East 479 551 35,000  Level Denver Center
06:19PM 40.4983 -100.5783 80° East 467 537 35,000  Level Denver Center
06:20PM 40.5183 -100.4197 81° East 464 534 35,000  Level Denver Center
06:21PM 40.5419 -100.2333 80° East 466 536 35,000  Level Denver Center
06:22PM 40.5622 -100.0686 81° East 478 550 35,000  Level Denver Center
06:23PM 40.5861 -99.8747 81° East 482 555 35,000  Level Denver Center
06:24PM 40.6092 -99.6911 81° East 491 565 35,000  Level Denver Center
06:25PM 40.6297 -99.5125 81° East 494 568 35,000  Level Denver Center
06:26PM 40.6503 -99.3350 81° East 493 567 35,000  Level Denver Center
06:27PM 40.6714 -99.1569 81° East 495 570 35,000  Level Denver Center
06:28PM 40.6878 -99.0172 81° East 492 566 35,000  Level Minneapolis Center
06:29PM 40.7108 -98.8067 82° East 489 563 35,000  Level Minneapolis Center
06:30PM 40.7297 -98.6297 82° East 491 565 35,000  Level Minneapolis Center
06:31PM 40.7503 -98.4539 81° East 490 564 35,000  Level Minneapolis Center
06:32PM 40.7686 -98.2764 82° East 492 566 35,000  Level Minneapolis Center
06:33PM 40.7875 -98.0992 82° East 491 565 35,000  Level Minneapolis Center
06:34PM 40.8064 -97.9233 82° East 488 562 35,000  Level Minneapolis Center
06:35PM 40.8239 -97.7472 82° East 486 559 35,000  Level Minneapolis Center
06:36PM 40.8453 -97.5350 82° East 488 562 35,000  Level Minneapolis Center
06:37PM 40.8633 -97.3600 82° East 483 556 35,000  Level Minneapolis Center
06:38PM 40.8789 -97.2008 83° East 477 549 35,000  Level Minneapolis Center
06:39PM 40.8956 -97.0278 83° East 476 548 35,000 -60 Level Minneapolis Center
06:40PM 40.9128 -96.8558 82° East 475 547 34,900 -840 Descending Minneapolis Center
06:41PM 40.9372 -96.6544 81° East 466 536 33,400 -1,320 Descending Minneapolis Center
06:42PM 40.9678 -96.4933 76° East 457 526 32,200 -1,200 Descending Minneapolis Center
06:43PM 40.9975 -96.3244 77° East 468 539 31,000 -600 Descending Minneapolis Center
06:44PM 41.0286 -96.1514 77° East 482 555 31,000  Level Minneapolis Center
06:45PM 41.0586 -95.9758 77° East 492 566 31,000  Level Minneapolis Center
06:46PM 41.0886 -95.7994 77° East 497 572 31,000 -900 Level Minneapolis Center
06:47PM 41.1253 -95.5894 77° East 494 568 29,200 -1,920 Descending Minneapolis Center
06:48PM 41.1542 -95.4236 77° East 474 545 27,100 -2,100 Descending Minneapolis Center
06:49PM 41.1803 -95.2586 78° East 463 533 24,900 -2,160 Descending Minneapolis Center
06:51PM 41.2114 -95.0731 77° East 438 504 22,300 -2,160 Descending Minneapolis Center
06:52PM 41.2361 -94.9194 78° East 430 495 20,100 -2,280 Descending Minneapolis Center
06:53PM 41.2611 -94.7706 77° East 418 481 17,700 -2,280 Descending Minneapolis Center
06:54PM 41.2975 -94.5811 76° East 396 456 15,200 -1,740 Descending Minneapolis Center
06:55PM 41.3103 -94.4692 81° East 394 453 14,200 -1,500 Descending Minneapolis Center
06:56PM 41.3322 -94.3250 78° East 373 429 12,400 -1,740 Descending Minneapolis Center
06:57PM 41.3617 -94.1686 76° East 355 409 10,500 -1,440 Descending Minneapolis Center
06:58PM 41.3711 -94.0781 82° East 332 382 9,500 -1,260 Descending Minneapolis Center
06:59PM 41.3894 -93.9611 78° East 303 349 8,100 -1,440 Descending Minneapolis Center
07:00PM 41.4058 -93.8372 80° East 298 343 6,500 -1,440 Descending Minneapolis Center
07:01PM 41.3933 -93.7492 101° East 283 326 5,200 -1,320 Descending Minneapolis Center
07:02PM 41.4078 -93.6511 79° East 254 292 4,000 -1,080 Descending Minneapolis Center
07:03PM 41.4578 -93.6025 36° Northeast 225 259 3,100 -1,020 Descending Minneapolis Center
07:04PM 41.4997 -93.6072 355° North 155 178 2,000 -1,020 Descending Minneapolis Center
07:05PM 41.5247 -93.6436 313° West 126 145 1,100 -540 Descending Minneapolis Center
07:06PM 41.5442 -93.6717 313° West 125 144 900 -240 Descending Minneapolis Center